Burgeo, Canada
Current Conditions -  °F | °C
As of 7:00 PM on Saturday 25 Oct 2014 (Local Time) from CWZB Reporting Station
Overcast Overcast  
Wind Chill: 41°   Ceiling: 1700
Heat Index: 47°   Visibility: 9mi
Dew Point: 44°   Wind: 15mph
Humidity: 87%   Direction: 80°E
Pressure: 29.47"   Gusts: NA
Location:  47.61°N, 57.61°W
Report Text: CWZB 252100Z AUTO 08013KT 9SM OVC017 08/06 A2947 RMK SLP981 PK WND 08017/// T00840064 70006 WSI/SWOB
Loading
Personal Weather Stations






























Interactive Weather Map
Tropical Storm Tracking
New forecast layout! Learn more

10-Day Weather Forecast

Advertisements
Track Severe Weather on mobile